createdAt,value
2022-10-09T00:01:05.699Z,6.13
2022-10-09T00:02:07.688Z,6.85
2022-10-09T00:03:10.351Z,7.55
2022-10-09T00:04:11.964Z,6.68
2022-10-09T00:05:14.866Z,7.07
2022-10-09T00:06:19.329Z,6.88
2022-10-09T00:07:21.028Z,8.38
2022-10-09T00:08:23.566Z,6.88
2022-10-09T00:09:26.267Z,6.65
2022-10-09T00:10:28.963Z,7.38
2022-10-09T00:11:33.879Z,6.80
2022-10-09T00:12:35.369Z,6.70
2022-10-09T00:13:38.548Z,6.53
2022-10-09T00:14:40.217Z,7.50
2022-10-09T00:15:46.344Z,7.13
2022-10-09T00:16:47.900Z,7.60
2022-10-09T00:17:50.860Z,6.75
2022-10-09T00:18:52.985Z,7.97
2022-10-09T00:19:55.492Z,7.32
2022-10-09T00:20:57.333Z,7.10
2022-10-09T00:21:59.822Z,7.43
2022-10-09T00:23:01.452Z,7.40
2022-10-09T00:24:05.689Z,7.97
2022-10-09T00:25:07.862Z,8.48
2022-10-09T00:26:12.002Z,8.30
2022-10-09T00:27:13.559Z,8.30
2022-10-09T00:28:16.187Z,8.02
2022-10-09T00:29:17.758Z,7.80
2022-10-09T00:30:20.372Z,8.07
2022-10-09T00:31:23.755Z,7.93
2022-10-09T00:32:26.284Z,7.60
2022-10-09T00:33:27.800Z,7.15
2022-10-09T00:34:30.687Z,8.48
2022-10-09T00:35:33.023Z,7.50
2022-10-09T00:36:35.552Z,8.48
2022-10-09T00:37:37.045Z,8.02
2022-10-09T00:38:39.658Z,7.93
2022-10-09T00:39:41.194Z,7.95
2022-10-09T00:40:44.047Z,8.20
2022-10-09T00:41:45.617Z,7.20
2022-10-09T00:42:48.921Z,8.00
2022-10-09T00:43:53.247Z,6.75
2022-10-09T00:44:59.868Z,6.85
2022-10-09T00:46:01.796Z,7.15
2022-10-09T00:47:05.735Z,8.13
2022-10-09T00:48:08.024Z,7.10
2022-10-09T00:49:23.319Z,7.20
2022-10-09T00:50:30.695Z,6.93
2022-10-09T00:51:35.134Z,7.50
2022-10-09T00:52:36.782Z,7.53
2022-10-09T00:53:39.563Z,7.88
2022-10-09T00:54:42.451Z,7.78
2022-10-09T01:00:52.780Z,7.55
2022-10-09T01:01:54.617Z,7.00
2022-10-09T01:02:58.515Z,7.65
2022-10-09T01:04:00.128Z,8.07
2022-10-09T01:05:02.771Z,7.80
2022-10-09T01:06:15.734Z,7.85
2022-10-09T01:07:32.535Z,6.22
2022-10-09T01:08:39.262Z,7.25
2022-10-09T01:09:47.829Z,7.55
2022-10-09T01:10:58.854Z,7.50
2022-10-09T01:12:07.660Z,8.02
2022-10-09T01:13:20.171Z,7.07
2022-10-09T01:14:27.057Z,7.40
2022-10-09T01:15:35.435Z,7.82
2022-10-09T01:16:42.347Z,7.18
2022-10-09T01:17:51.173Z,6.90
2022-10-09T01:19:02.293Z,7.10
2022-10-09T01:20:22.229Z,7.82
2022-10-09T01:21:30.478Z,8.35
2022-10-09T01:22:45.753Z,7.75
2022-10-09T01:24:00.163Z,8.05
2022-10-09T01:25:06.084Z,8.75
2022-10-09T01:26:40.516Z,7.05
2022-10-09T01:27:43.599Z,7.32
2022-10-09T01:28:50.004Z,8.00
2022-10-09T01:29:55.800Z,7.82
2022-10-09T01:31:01.135Z,6.88
2022-10-09T01:32:05.430Z,8.20
2022-10-09T01:33:08.388Z,7.32
2022-10-09T01:34:12.177Z,7.93
2022-10-09T01:35:16.157Z,8.07
2022-10-09T01:36:19.405Z,7.30
2022-10-09T01:37:23.367Z,7.80
2022-10-09T01:38:25.399Z,8.20
2022-10-09T01:39:29.678Z,8.10
2022-10-09T01:40:32.014Z,8.05
2022-10-09T01:41:34.918Z,7.80
2022-10-09T01:42:37.321Z,8.57
2022-10-09T01:43:41.478Z,8.05
2022-10-09T01:44:43.017Z,8.50
2022-10-09T01:51:07.561Z,7.15
2022-10-09T01:52:22.011Z,8.35
2022-10-09T01:53:25.344Z,8.40
2022-10-09T01:54:35.063Z,8.15
2022-10-09T01:55:42.561Z,8.30
2022-10-09T01:56:48.656Z,7.60
2022-10-09T01:57:56.551Z,8.57
2022-10-09T01:59:02.183Z,9.48
2022-10-09T02:00:09.280Z,8.30
2022-10-09T02:01:16.799Z,7.50
2022-10-09T02:02:20.365Z,7.70
2022-10-09T02:03:24.292Z,8.30
2022-10-09T02:04:29.132Z,7.10
2022-10-09T02:05:32.003Z,8.13
2022-10-09T02:06:36.351Z,8.10
2022-10-09T02:07:38.389Z,8.40
2022-10-09T02:08:42.741Z,8.63
2022-10-09T02:09:45.739Z,8.27
2022-10-09T02:10:52.356Z,7.60
2022-10-09T02:11:57.493Z,8.98
2022-10-09T02:13:01.225Z,7.93
2022-10-09T02:14:04.204Z,8.50
2022-10-09T02:15:09.483Z,8.07
2022-10-09T02:16:17.356Z,8.07
2022-10-09T02:17:26.759Z,7.82
2022-10-09T02:18:33.519Z,7.70
2022-10-09T02:19:40.714Z,9.40
2022-10-09T02:20:47.064Z,8.77
2022-10-09T02:21:56.303Z,8.30
2022-10-09T02:23:00.361Z,8.75
2022-10-09T02:24:05.015Z,9.15
2022-10-09T02:25:07.351Z,8.45
2022-10-09T02:26:11.306Z,9.35
2022-10-09T02:27:13.883Z,9.18
2022-10-09T02:28:16.419Z,9.45
2022-10-09T02:29:19.658Z,10.15
2022-10-09T02:30:22.704Z,8.48
2022-10-09T02:31:27.319Z,7.95
2022-10-09T02:32:30.324Z,8.80
2022-10-09T02:33:32.373Z,8.55
2022-10-09T02:34:35.032Z,7.78
2022-10-09T02:35:38.292Z,7.82
2022-10-09T02:36:41.037Z,7.97
2022-10-09T02:37:42.565Z,8.50
2022-10-09T02:38:45.067Z,7.85
2022-10-09T02:39:46.607Z,7.68
2022-10-09T02:40:49.056Z,7.53
2022-10-09T02:41:50.596Z,9.15
2022-10-09T02:42:53.075Z,7.50
2022-10-09T02:43:55.275Z,7.55
2022-10-09T02:44:59.231Z,7.60
2022-10-09T02:46:00.751Z,7.85
2022-10-09T02:47:03.416Z,7.32
2022-10-09T02:48:04.976Z,7.45
2022-10-09T02:49:07.960Z,7.93
2022-10-09T02:50:09.926Z,8.25
2022-10-09T02:51:12.416Z,7.40
2022-10-09T02:52:14.024Z,7.35
2022-10-09T02:53:16.697Z,6.78
2022-10-09T02:54:18.220Z,7.50
2022-10-09T02:55:20.747Z,7.40
2022-10-09T02:56:22.681Z,7.47
2022-10-09T02:57:25.201Z,7.20
2022-10-09T02:58:26.741Z,7.47
2022-10-09T02:59:29.206Z,7.53
2022-10-09T03:00:32.094Z,8.40
2022-10-09T03:01:34.904Z,8.02
2022-10-09T03:02:36.604Z,7.47
2022-10-09T03:03:39.187Z,8.32
2022-10-09T03:04:40.738Z,8.30
2022-10-09T03:05:43.289Z,8.60
2022-10-09T03:06:44.852Z,8.70
2022-10-09T03:07:51.419Z,6.78
2022-10-09T03:08:53.580Z,8.52
2022-10-09T03:09:57.142Z,8.10
2022-10-09T03:15:41.933Z,7.57
2022-10-09T03:16:45.634Z,8.25
2022-10-09T03:17:47.209Z,8.35
2022-10-09T03:18:50.658Z,7.63
2022-10-09T03:19:53.638Z,7.80
2022-10-09T03:20:56.196Z,8.15
2022-10-09T03:21:57.720Z,7.63
2022-10-09T03:23:00.179Z,7.28
2022-10-09T03:24:01.727Z,8.25
2022-10-09T03:25:04.432Z,8.02
2022-10-09T03:26:08.052Z,7.90
2022-10-09T03:27:10.496Z,8.32
2022-10-09T03:28:12.070Z,7.90
2022-10-09T03:29:14.600Z,7.93
2022-10-09T03:30:16.205Z,7.03
2022-10-09T03:31:49.980Z,7.93
2022-10-09T03:32:44.765Z,7.45
2022-10-09T03:33:47.266Z,7.78
2022-10-09T03:34:49.732Z,7.93
2022-10-09T03:35:51.277Z,8.00
2022-10-09T03:36:53.760Z,7.25
2022-10-09T03:37:55.275Z,7.20
2022-10-09T03:38:57.737Z,8.98
2022-10-09T03:39:59.325Z,7.13
2022-10-09T03:41:04.094Z,6.97
2022-10-09T03:42:06.150Z,7.55
2022-10-09T03:43:09.008Z,7.25
2022-10-09T03:44:10.542Z,7.50
2022-10-09T03:45:13.471Z,7.65
2022-10-09T03:46:15.075Z,7.45
2022-10-09T03:47:19.299Z,7.32
2022-10-09T03:48:20.927Z,7.38
2022-10-09T03:49:23.503Z,7.00
2022-10-09T03:50:25.168Z,7.57
2022-10-09T03:51:27.624Z,7.95
2022-10-09T03:52:29.127Z,6.47
2022-10-09T03:53:31.685Z,7.53
2022-10-09T03:54:33.289Z,7.28
2022-10-09T03:55:36.607Z,7.88
2022-10-09T03:56:38.109Z,8.25
2022-10-09T03:57:40.694Z,7.95
2022-10-09T03:58:42.194Z,7.78
2022-10-09T03:59:44.677Z,7.88
2022-10-09T04:00:46.561Z,7.15
2022-10-09T04:01:49.153Z,7.72
2022-10-09T04:02:52.624Z,8.30
2022-10-09T04:03:55.392Z,7.88
2022-10-09T04:04:56.912Z,7.78
2022-10-09T04:05:59.390Z,8.50
2022-10-09T04:07:00.927Z,9.07
2022-10-09T04:08:03.658Z,8.40
2022-10-09T04:09:05.330Z,8.38
2022-10-09T04:10:08.469Z,7.93
2022-10-09T04:11:09.971Z,8.30
2022-10-09T04:12:16.641Z,8.90
2022-10-09T04:13:18.135Z,7.85
2022-10-09T04:14:20.584Z,7.15
2022-10-09T04:15:23.103Z,7.82
2022-10-09T04:16:25.705Z,7.45
2022-10-09T04:17:27.338Z,6.60
2022-10-09T04:18:31.674Z,8.85
2022-10-09T04:19:33.264Z,8.25
2022-10-09T04:20:36.154Z,8.00
2022-10-09T04:21:37.730Z,7.20
2022-10-09T04:22:40.209Z,7.32
2022-10-09T04:23:42.162Z,6.97
2022-10-09T04:24:44.726Z,7.50
2022-10-09T04:25:46.825Z,7.70
2022-10-09T04:26:49.840Z,7.30
2022-10-09T04:27:51.389Z,7.82
2022-10-09T04:28:53.838Z,7.45
2022-10-09T04:29:55.409Z,7.45
2022-10-09T04:30:58.970Z,7.30
2022-10-09T04:32:00.661Z,7.13
2022-10-09T04:33:03.159Z,7.20
2022-10-09T04:34:06.329Z,7.28
2022-10-09T04:35:09.696Z,6.53
2022-10-09T04:36:11.206Z,7.65
2022-10-09T04:37:13.872Z,6.63
2022-10-09T04:38:15.418Z,6.93
2022-10-09T04:39:18.005Z,7.35
2022-10-09T04:40:19.577Z,7.35
2022-10-09T04:41:22.097Z,7.53
2022-10-09T04:42:23.632Z,7.38
2022-10-09T04:43:26.262Z,7.07
2022-10-09T04:44:27.813Z,6.75
2022-10-09T04:45:33.141Z,7.45
2022-10-09T04:46:36.334Z,6.63
2022-10-09T04:47:38.856Z,7.05
2022-10-09T04:48:41.737Z,7.90
2022-10-09T04:49:45.818Z,7.55
2022-10-09T04:50:47.341Z,7.97
2022-10-09T04:51:49.891Z,8.50
2022-10-09T04:52:51.703Z,8.05
2022-10-09T04:54:00.413Z,7.85
2022-10-09T04:55:02.317Z,7.65
2022-10-09T04:56:05.816Z,7.45
2022-10-09T04:57:07.369Z,8.52
2022-10-09T04:58:10.807Z,7.68
2022-10-09T04:59:13.549Z,7.15
2022-10-09T05:00:15.498Z,7.07
2022-10-09T05:01:25.890Z,7.32
2022-10-09T05:02:27.618Z,7.63
2022-10-09T05:03:30.140Z,8.32
2022-10-09T05:04:32.014Z,7.35
2022-10-09T05:05:35.834Z,7.35
2022-10-09T05:06:37.349Z,7.30
2022-10-09T05:07:39.839Z,7.28
2022-10-09T05:08:42.342Z,7.00
2022-10-09T05:09:44.831Z,8.40
2022-10-09T05:10:46.373Z,7.63
2022-10-09T05:11:49.155Z,7.70
2022-10-09T05:12:51.067Z,7.95
2022-10-09T05:13:56.587Z,7.45
2022-10-09T05:14:58.197Z,8.63
2022-10-09T05:16:02.989Z,7.63
2022-10-09T05:17:23.270Z,8.65
2022-10-09T05:18:26.378Z,7.30
2022-10-09T05:19:28.259Z,8.10
2022-10-09T05:20:30.755Z,8.38
2022-10-09T05:26:17.310Z,6.60
2022-10-09T05:27:18.839Z,6.30
2022-10-09T05:28:21.357Z,7.65
2022-10-09T05:29:23.874Z,6.93
2022-10-09T05:30:25.481Z,7.22
2022-10-09T05:31:29.496Z,6.93
2022-10-09T05:32:31.146Z,6.75
2022-10-09T05:33:34.105Z,6.85
2022-10-09T05:34:35.972Z,6.75
2022-10-09T05:35:38.753Z,6.60
2022-10-09T05:36:40.294Z,6.20
2022-10-09T05:37:45.467Z,6.88
2022-10-09T05:38:47.357Z,6.70
2022-10-09T05:39:49.880Z,6.55
2022-10-09T05:40:52.432Z,6.68
2022-10-09T05:41:56.514Z,6.18
2022-10-09T05:42:58.031Z,7.03
2022-10-09T05:44:02.935Z,6.43
2022-10-09T05:45:05.302Z,6.53
2022-10-09T05:46:09.593Z,6.50
2022-10-09T05:47:13.456Z,7.25
2022-10-09T05:48:16.107Z,6.20
2022-10-09T05:49:17.792Z,6.47
2022-10-09T05:50:20.276Z,6.95
2022-10-09T05:56:32.317Z,6.60
2022-10-09T05:57:35.297Z,7.28
2022-10-09T05:58:37.777Z,6.63
2022-10-09T05:59:40.311Z,6.45
2022-10-09T06:00:41.850Z,7.10
2022-10-09T06:01:46.582Z,6.40
2022-10-09T06:02:49.521Z,6.70
2022-10-09T06:03:52.458Z,6.60
2022-10-09T06:04:54.935Z,6.75
2022-10-09T06:05:59.893Z,6.18
2022-10-09T06:07:02.374Z,6.57
2022-10-09T06:08:03.988Z,6.60
2022-10-09T06:09:07.867Z,5.82
2022-10-09T06:10:11.060Z,5.90
2022-10-09T06:11:14.627Z,6.55
2022-10-09T06:12:17.106Z,5.60
2022-10-09T06:13:19.950Z,6.57
2022-10-09T06:14:24.240Z,5.80
2022-10-09T06:15:25.791Z,5.70
2022-10-09T06:16:30.278Z,6.60
2022-10-09T06:17:32.744Z,7.00
2022-10-09T06:18:35.418Z,6.00
2022-10-09T06:19:37.953Z,6.65
2022-10-09T06:20:39.693Z,5.90
2022-10-09T06:21:42.693Z,6.35
2022-10-09T06:22:44.225Z,6.07
2022-10-09T06:23:50.912Z,5.65
2022-10-09T06:24:52.432Z,6.22
2022-10-09T06:25:55.672Z,6.90
2022-10-09T06:26:57.901Z,6.70
2022-10-09T06:28:01.106Z,6.32
2022-10-09T06:29:03.999Z,6.22
2022-10-09T06:30:07.405Z,6.60
2022-10-09T06:31:11.614Z,6.15
2022-10-09T06:32:14.178Z,6.07
2022-10-09T06:33:16.333Z,7.22
2022-10-09T06:34:19.987Z,7.00
2022-10-09T06:35:21.637Z,6.18
2022-10-09T06:41:31.601Z,6.43
2022-10-09T06:42:33.124Z,6.03
2022-10-09T06:43:35.835Z,6.60
2022-10-09T06:44:38.719Z,5.93
2022-10-09T06:45:41.225Z,5.93
2022-10-09T06:46:44.196Z,6.50
2022-10-09T06:47:46.699Z,6.10
2022-10-09T06:48:48.252Z,6.13
2022-10-09T06:49:50.723Z,6.32
2022-10-09T06:50:52.224Z,6.10
2022-10-09T06:51:54.736Z,5.53
2022-10-09T06:52:56.828Z,5.60
2022-10-09T06:54:01.789Z,5.82
2022-10-09T06:55:04.040Z,6.05
2022-10-09T06:56:07.031Z,5.43
2022-10-09T06:57:08.575Z,5.85
2022-10-09T06:58:11.057Z,5.43
2022-10-09T06:59:12.639Z,5.32
2022-10-09T07:00:16.910Z,6.75
2022-10-09T07:01:24.808Z,5.65
2022-10-09T07:02:27.348Z,5.30
2022-10-09T07:03:28.874Z,5.90
2022-10-09T07:04:31.527Z,5.15
2022-10-09T07:05:33.047Z,5.50
2022-10-09T07:11:36.433Z,5.35
2022-10-09T07:12:38.655Z,5.47
2022-10-09T07:13:41.629Z,4.88
2022-10-09T07:14:43.285Z,6.25
2022-10-09T07:15:47.304Z,4.80
2022-10-09T07:16:48.973Z,5.03
2022-10-09T07:17:51.649Z,4.90
2022-10-09T07:18:53.678Z,4.50
2022-10-09T07:19:56.130Z,5.10
2022-10-09T07:21:00.481Z,4.90
2022-10-09T07:22:03.153Z,5.10
2022-10-09T07:23:04.741Z,5.05
2022-10-09T07:24:08.130Z,4.60
2022-10-09T07:25:11.763Z,4.65
2022-10-09T07:26:16.213Z,5.20
2022-10-09T07:27:18.208Z,6.15
2022-10-09T07:28:20.731Z,5.72
2022-10-09T07:29:22.247Z,4.28
2022-10-09T07:30:24.770Z,5.25
2022-10-09T07:31:27.856Z,4.90
2022-10-09T07:32:30.388Z,4.63
2022-10-09T07:33:32.321Z,4.93
2022-10-09T07:34:34.841Z,5.15
2022-10-09T07:35:36.386Z,4.35
2022-10-09T07:36:38.978Z,5.00
2022-10-09T07:37:41.907Z,4.90
2022-10-09T07:38:43.648Z,5.10
2022-10-09T07:39:46.511Z,4.78
2022-10-09T07:40:48.135Z,5.15
2022-10-09T07:41:52.397Z,4.82
2022-10-09T07:42:54.481Z,5.30
2022-10-09T07:43:57.820Z,4.60
2022-10-09T07:44:59.318Z,5.40
2022-10-09T07:46:03.485Z,5.20
2022-10-09T07:47:06.640Z,4.88
2022-10-09T07:48:09.131Z,5.30
2022-10-09T07:49:10.713Z,4.95
2022-10-09T07:50:13.204Z,5.55
2022-10-09T07:51:17.282Z,5.15
2022-10-09T07:52:19.774Z,5.18
2022-10-09T07:53:21.781Z,5.18
2022-10-09T07:54:24.390Z,5.22
2022-10-09T07:55:25.909Z,4.88
2022-10-09T07:56:29.961Z,5.40
2022-10-09T07:57:31.492Z,5.10
2022-10-09T07:58:34.836Z,5.50
2022-10-09T07:59:37.303Z,5.70
2022-10-09T08:00:38.852Z,4.68
2022-10-09T08:01:41.766Z,5.00
2022-10-09T08:02:44.862Z,4.95
2022-10-09T08:03:47.526Z,4.63
2022-10-09T08:04:50.071Z,5.18
2022-10-09T08:05:54.348Z,4.60
2022-10-09T08:06:58.258Z,4.95
2022-10-09T08:07:59.942Z,5.28
2022-10-09T08:09:03.844Z,5.60
2022-10-09T08:10:06.117Z,4.38
2022-10-09T08:11:10.871Z,3.75
2022-10-09T08:12:12.894Z,4.20
2022-10-09T08:13:15.380Z,4.70
2022-10-09T08:14:19.641Z,3.63
2022-10-09T08:15:21.429Z,4.00
2022-10-09T08:16:25.211Z,4.40
2022-10-09T08:17:26.762Z,3.75
2022-10-09T08:18:30.626Z,5.15
2022-10-09T08:19:32.202Z,3.97
2022-10-09T08:20:34.733Z,4.20
2022-10-09T08:21:36.261Z,2.78
2022-10-09T08:22:38.745Z,3.30
2022-10-09T08:23:40.800Z,4.35
2022-10-09T08:24:43.292Z,3.88
2022-10-09T08:25:45.843Z,4.00
2022-10-09T08:26:48.409Z,3.72
2022-10-09T08:27:52.190Z,3.22
2022-10-09T08:28:56.833Z,3.40
2022-10-09T08:29:59.533Z,3.55
2022-10-09T08:31:09.347Z,3.85
2022-10-09T08:32:11.915Z,3.10
2022-10-09T08:33:13.563Z,3.35
2022-10-09T08:34:17.427Z,3.85
2022-10-09T08:35:19.028Z,3.55
2022-10-09T08:36:22.442Z,3.13
2022-10-09T08:37:23.956Z,3.55
2022-10-09T08:38:46.180Z,2.90
2022-10-09T08:39:49.004Z,3.40
2022-10-09T08:40:58.441Z,4.05
2022-10-09T08:42:03.252Z,3.22
2022-10-09T08:43:07.022Z,3.53
2022-10-09T08:44:16.162Z,3.00
2022-10-09T08:45:19.204Z,3.17
2022-10-09T08:46:27.074Z,3.15
2022-10-09T08:47:39.009Z,3.60
2022-10-09T08:48:45.564Z,4.13
2022-10-09T08:49:55.801Z,2.97
2022-10-09T08:50:58.952Z,3.40
2022-10-09T08:52:20.359Z,4.10
2022-10-09T08:53:31.008Z,3.00
2022-10-09T08:54:36.569Z,3.33
2022-10-09T08:55:44.345Z,3.28
2022-10-09T08:56:47.546Z,3.50
2022-10-09T08:57:52.395Z,3.35
2022-10-09T08:58:53.983Z,3.50
2022-10-09T08:59:57.427Z,3.80
2022-10-09T09:01:05.333Z,3.22
2022-10-09T09:02:29.893Z,3.08
2022-10-09T09:03:55.293Z,4.60
2022-10-09T09:05:08.762Z,3.08
2022-10-09T09:11:21.378Z,2.92
2022-10-09T09:12:33.779Z,3.65
2022-10-09T09:13:50.612Z,3.35
2022-10-09T09:15:09.502Z,3.05
2022-10-09T09:16:21.180Z,3.30
2022-10-09T09:17:26.965Z,3.88
2022-10-09T09:18:42.537Z,3.03
2022-10-09T09:19:54.781Z,3.10
2022-10-09T09:21:06.186Z,3.78
2022-10-09T09:22:12.179Z,4.25
2022-10-09T09:23:16.681Z,3.45
2022-10-09T09:24:21.172Z,3.05
2022-10-09T09:25:25.360Z,3.38
2022-10-09T09:26:27.516Z,3.60
2022-10-09T09:27:34.178Z,3.20
2022-10-09T09:28:39.546Z,3.30
2022-10-09T09:29:46.563Z,3.80
2022-10-09T09:30:55.652Z,3.42
2022-10-09T09:32:02.058Z,3.58
2022-10-09T09:33:14.242Z,3.28
2022-10-09T09:34:23.722Z,3.28
2022-10-09T09:35:32.440Z,3.80
2022-10-09T09:36:42.116Z,3.47
2022-10-09T09:37:43.638Z,3.60
2022-10-09T09:39:22.604Z,3.20
2022-10-09T09:45:33.953Z,3.80
2022-10-09T09:46:38.447Z,3.60
2022-10-09T09:47:45.286Z,4.18
2022-10-09T09:48:49.237Z,4.50
2022-10-09T09:49:56.110Z,3.50
2022-10-09T09:51:16.277Z,3.42
2022-10-09T09:52:29.547Z,3.15
2022-10-09T09:53:33.858Z,3.42
2022-10-09T09:54:36.411Z,3.50
2022-10-09T09:55:38.116Z,3.13
2022-10-09T09:57:10.231Z,3.20
2022-10-09T09:58:08.279Z,3.30
2022-10-09T09:59:26.861Z,3.58
2022-10-09T10:00:29.726Z,3.35
2022-10-09T10:01:32.645Z,2.65
2022-10-09T10:02:35.902Z,3.67
2022-10-09T10:03:50.323Z,3.08
2022-10-09T10:04:53.953Z,2.80
2022-10-09T10:05:57.177Z,3.33
2022-10-09T10:07:05.929Z,3.25
2022-10-09T10:08:25.814Z,4.32
2022-10-09T10:09:28.346Z,3.92
2022-10-09T10:10:30.242Z,3.40
2022-10-09T10:11:35.603Z,3.70
2022-10-09T10:12:41.530Z,3.30
2022-10-09T10:13:49.572Z,3.00
2022-10-09T10:14:51.606Z,3.03
2022-10-09T10:20:50.691Z,3.30
2022-10-09T10:21:57.221Z,3.22
2022-10-09T10:23:01.288Z,2.95
2022-10-09T10:24:08.912Z,3.30
2022-10-09T10:25:18.385Z,3.58
2022-10-09T10:26:26.014Z,3.05
2022-10-09T10:27:35.372Z,3.22
2022-10-09T10:28:47.849Z,3.58
2022-10-09T10:29:52.104Z,3.13
2022-10-09T10:31:00.214Z,3.10
2022-10-09T10:32:11.457Z,3.00
2022-10-09T10:33:19.448Z,3.33
2022-10-09T10:34:26.576Z,3.00
2022-10-09T10:35:33.715Z,3.13
2022-10-09T10:36:36.563Z,3.22
2022-10-09T10:37:46.143Z,3.03
2022-10-09T10:38:55.324Z,3.10
2022-10-09T10:40:14.166Z,3.65
2022-10-09T10:41:29.257Z,3.20
2022-10-09T10:42:41.709Z,2.70
2022-10-09T10:43:51.664Z,3.30
2022-10-09T10:45:00.583Z,2.63
2022-10-09T10:46:11.869Z,3.38
2022-10-09T10:47:22.747Z,2.80
2022-10-09T10:48:28.605Z,2.85
2022-10-09T10:49:33.949Z,2.30
2022-10-09T10:50:43.032Z,2.97
2022-10-09T10:51:58.955Z,2.45
2022-10-09T10:53:23.097Z,2.58
2022-10-09T10:54:39.811Z,3.55
2022-10-09T10:55:52.726Z,3.22
2022-10-09T10:57:01.780Z,2.70
2022-10-09T10:59:37.670Z,2.97
2022-10-09T11:00:43.881Z,3.15
2022-10-09T11:02:11.831Z,2.85
2022-10-09T11:03:34.968Z,2.40
2022-10-09T11:04:48.168Z,2.88
2022-10-09T11:05:55.878Z,3.20
2022-10-09T11:07:05.918Z,2.80
2022-10-09T11:08:29.134Z,3.08
2022-10-09T11:09:40.434Z,3.45
2022-10-09T11:21:02.459Z,2.78
2022-10-09T11:22:16.044Z,2.60
2022-10-09T11:23:32.640Z,2.60
2022-10-09T11:24:58.591Z,2.47
2022-10-09T11:26:09.042Z,2.20
2022-10-09T11:27:17.335Z,2.17
2022-10-09T11:28:25.666Z,2.58
2022-10-09T11:29:36.178Z,2.38
2022-10-09T11:30:42.735Z,2.78
2022-10-09T11:31:49.101Z,2.85
2022-10-09T11:32:58.603Z,2.40
2022-10-09T11:34:07.114Z,3.13
2022-10-09T11:35:19.503Z,2.75
2022-10-09T11:36:28.461Z,2.60
2022-10-09T11:37:35.635Z,2.33
2022-10-09T11:38:43.408Z,2.63
2022-10-09T11:39:45.698Z,2.22
2022-10-09T11:40:49.166Z,2.50
2022-10-09T11:41:53.630Z,2.28
2022-10-09T11:43:00.392Z,2.22
2022-10-09T11:44:22.301Z,2.00
2022-10-09T11:45:30.713Z,2.05
2022-10-09T11:46:42.488Z,2.78
2022-10-09T11:47:54.547Z,2.60
2022-10-09T11:49:09.820Z,2.63
2022-10-09T11:50:35.755Z,2.00
2022-10-09T11:51:47.937Z,2.53
2022-10-09T11:52:58.465Z,2.35
2022-10-09T11:54:00.799Z,2.55
2022-10-09T11:55:17.888Z,2.40
2022-10-09T11:56:25.082Z,2.65
2022-10-09T11:57:28.410Z,2.70
2022-10-09T11:58:30.963Z,2.35
2022-10-09T11:59:36.057Z,2.03
2022-10-09T12:00:38.907Z,2.10
2022-10-09T12:01:42.841Z,2.15
2022-10-09T12:02:45.528Z,2.22
2022-10-09T12:03:47.478Z,2.60
2022-10-09T12:04:54.883Z,2.20
2022-10-09T12:06:07.442Z,2.22
2022-10-09T12:07:13.062Z,2.22
2022-10-09T12:08:19.537Z,2.22
2022-10-09T12:09:26.563Z,1.85
2022-10-09T12:10:33.411Z,2.50
2022-10-09T12:11:35.329Z,2.10
2022-10-09T12:12:38.759Z,2.25
2022-10-09T12:13:47.422Z,2.40
2022-10-09T12:14:51.632Z,2.63
2022-10-09T12:15:57.076Z,2.20
2022-10-09T12:17:00.311Z,2.10
2022-10-09T12:18:14.028Z,2.75
2022-10-09T12:19:19.722Z,1.90
2022-10-09T12:20:25.183Z,2.30
2022-10-09T12:21:32.523Z,2.28
2022-10-09T12:22:41.405Z,3.45
2022-10-09T12:23:46.668Z,2.20
2022-10-09T12:24:52.466Z,2.33
2022-10-09T12:25:55.336Z,2.40
2022-10-09T12:27:02.993Z,2.10
2022-10-09T12:28:06.655Z,1.80
2022-10-09T12:29:20.823Z,1.90
2022-10-09T12:30:30.083Z,2.50
2022-10-09T12:31:35.391Z,2.50
2022-10-09T12:32:40.535Z,2.17
2022-10-09T12:33:46.632Z,2.00
2022-10-09T12:34:51.725Z,2.22
2022-10-09T12:36:05.102Z,1.90
2022-10-09T12:37:12.763Z,1.90
2022-10-09T12:38:25.377Z,1.80
2022-10-09T12:39:27.859Z,2.00
2022-10-09T12:40:32.373Z,1.73
2022-10-09T12:41:36.061Z,1.95
2022-10-09T12:42:38.593Z,2.28
2022-10-09T12:43:48.687Z,1.90
2022-10-09T12:44:53.828Z,2.20
2022-10-09T12:45:55.782Z,2.13
2022-10-09T12:47:02.696Z,1.70
2022-10-09T12:48:11.046Z,1.77
2022-10-09T12:49:20.334Z,1.60
2022-10-09T12:50:27.122Z,1.90
2022-10-09T12:51:32.108Z,2.13
2022-10-09T12:52:34.750Z,1.90
2022-10-09T12:53:46.782Z,1.80
2022-10-09T12:54:49.314Z,2.10
2022-10-09T12:55:53.187Z,2.10
2022-10-09T12:56:57.410Z,1.90
2022-10-09T12:58:03.360Z,1.80
2022-10-09T12:59:06.931Z,2.53
2022-10-09T13:00:15.319Z,1.63
2022-10-09T13:01:18.325Z,1.67
2022-10-09T13:02:22.083Z,1.92
2022-10-09T13:03:26.095Z,1.90
2022-10-09T13:04:31.603Z,2.15
2022-10-09T13:05:37.991Z,2.22
2022-10-09T13:06:45.589Z,1.88
2022-10-09T13:07:52.539Z,2.50
2022-10-09T13:08:59.574Z,1.90
2022-10-09T13:10:05.615Z,1.98
2022-10-09T13:11:12.956Z,1.85
2022-10-09T13:12:20.199Z,3.17
2022-10-09T13:13:27.660Z,1.75
2022-10-09T13:14:35.726Z,1.83
2022-10-09T13:15:38.274Z,1.98
2022-10-09T13:16:43.793Z,1.95
2022-10-09T13:17:46.680Z,2.53
2022-10-09T13:18:56.147Z,1.90
2022-10-09T13:20:00.433Z,1.67
2022-10-09T13:21:04.230Z,1.80
2022-10-09T13:22:20.233Z,1.70
2022-10-09T13:23:29.047Z,1.80
2022-10-09T13:24:32.917Z,1.90
2022-10-09T13:25:39.851Z,1.92
2022-10-09T13:26:43.765Z,1.70
2022-10-09T13:27:46.405Z,1.80
2022-10-09T13:28:48.215Z,2.17
2022-10-09T13:29:50.901Z,1.50
2022-10-09T13:30:53.491Z,1.70
2022-10-09T13:31:55.097Z,1.80
2022-10-09T13:32:58.057Z,2.00
2022-10-09T13:34:00.691Z,1.67
2022-10-09T13:35:03.174Z,1.90
2022-10-09T13:36:05.104Z,1.60
2022-10-09T13:37:07.685Z,2.28
2022-10-09T13:38:13.422Z,1.58
2022-10-09T13:39:16.036Z,1.60
2022-10-09T13:40:21.825Z,1.45
2022-10-09T13:41:24.795Z,1.77
2022-10-09T13:42:30.988Z,1.80
2022-10-09T13:43:33.126Z,1.48
2022-10-09T13:44:35.977Z,1.95
2022-10-09T13:45:37.597Z,1.80
2022-10-09T13:46:40.251Z,1.40
2022-10-09T13:47:41.894Z,1.83
2022-10-09T13:48:45.775Z,2.03
2022-10-09T13:49:47.505Z,1.60
2022-10-09T13:50:50.076Z,1.80
2022-10-09T13:51:51.574Z,1.63
2022-10-09T13:52:54.141Z,1.60
2022-10-09T13:53:55.725Z,1.50
2022-10-09T13:54:58.223Z,2.00
2022-10-09T13:56:01.417Z,1.70
2022-10-09T13:57:04.355Z,1.70
2022-10-09T13:58:06.106Z,1.45
2022-10-09T13:59:08.639Z,1.60
2022-10-09T14:00:11.448Z,1.40
2022-10-09T14:01:15.107Z,1.75
2022-10-09T14:02:16.710Z,1.40
2022-10-09T14:03:19.301Z,1.77
2022-10-09T14:04:21.292Z,1.40
2022-10-09T14:05:26.430Z,1.70
2022-10-09T14:06:28.035Z,1.48
2022-10-09T14:07:30.880Z,1.52
2022-10-09T14:08:32.419Z,1.70
2022-10-09T14:09:35.020Z,1.77
2022-10-09T14:10:41.824Z,1.50
2022-10-09T14:11:45.639Z,1.65
2022-10-09T14:12:47.388Z,1.30
2022-10-09T14:13:50.912Z,1.58
2022-10-09T14:14:54.127Z,2.15
2022-10-09T14:20:57.481Z,1.58
2022-10-09T14:21:59.019Z,1.40
2022-10-09T14:23:01.680Z,3.10
2022-10-09T14:24:03.624Z,1.40
2022-10-09T14:25:07.636Z,1.85
2022-10-09T14:26:09.779Z,1.60
2022-10-09T14:27:13.662Z,1.10
2022-10-09T14:28:15.285Z,1.20
2022-10-09T14:29:17.940Z,1.63
2022-10-09T14:30:19.494Z,1.60
2022-10-09T14:31:22.287Z,1.58
2022-10-09T14:32:24.774Z,1.48
2022-10-09T14:33:26.376Z,1.75
2022-10-09T14:34:28.913Z,1.40
2022-10-09T14:35:30.511Z,1.42
2022-10-09T14:36:33.195Z,1.30
2022-10-09T14:37:41.467Z,1.40
2022-10-09T14:38:44.583Z,1.50
2022-10-09T14:39:46.696Z,1.55
2022-10-09T14:45:44.769Z,1.80
2022-10-09T14:46:46.292Z,1.47
2022-10-09T14:47:49.113Z,1.30
2022-10-09T14:48:51.355Z,1.60
2022-10-09T14:49:54.008Z,1.70
2022-10-09T14:50:55.660Z,1.40
2022-10-09T14:51:58.125Z,1.50
2022-10-09T14:52:59.649Z,1.20
2022-10-09T14:54:02.489Z,1.60
2022-10-09T14:55:04.781Z,1.85
2022-10-09T14:56:11.001Z,1.50
2022-10-09T14:57:12.749Z,1.33
2022-10-09T14:58:15.234Z,1.30
2022-10-09T14:59:18.035Z,1.30
2022-10-09T15:00:20.781Z,1.55
2022-10-09T15:01:25.621Z,1.30
2022-10-09T15:02:27.113Z,1.23
2022-10-09T15:03:30.899Z,1.43
2022-10-09T15:04:33.615Z,1.77
2022-10-09T15:05:35.217Z,1.50
2022-10-09T15:06:37.773Z,1.20
2022-10-09T15:07:39.345Z,1.52
2022-10-09T15:08:43.245Z,1.45
2022-10-09T15:09:44.811Z,1.60
2022-10-09T15:10:47.274Z,1.70
2022-10-09T15:11:48.812Z,2.05
2022-10-09T15:12:51.274Z,1.70
2022-10-09T15:13:53.113Z,1.50
2022-10-09T15:14:55.588Z,1.40
2022-10-09T15:16:00.926Z,2.05
2022-10-09T15:17:05.059Z,1.65
2022-10-09T15:18:10.349Z,1.75
2022-10-09T15:19:14.483Z,1.73
2022-10-09T15:20:16.787Z,1.20
2022-10-09T15:21:22.461Z,2.03
2022-10-09T15:22:24.032Z,1.58
2022-10-09T15:23:27.809Z,1.60
2022-10-09T15:24:30.592Z,1.20
2022-10-09T15:25:34.038Z,1.77
2022-10-09T15:26:37.156Z,1.80
2022-10-09T15:27:45.957Z,1.83
2022-10-09T15:28:48.623Z,1.60
2022-10-09T15:29:52.061Z,1.70
2022-10-09T15:35:51.445Z,2.07
2022-10-09T15:36:54.473Z,1.60
2022-10-09T15:38:02.248Z,1.85
2022-10-09T15:39:07.108Z,1.88
2022-10-09T15:40:10.562Z,1.55